Jennings Lodge, Oregon
Current Conditions -  °F | °C
As of 6:09 AM on Wednesday 28 Jan 2015 (Local Time) from KPDX Reporting Station
Drizzle Drizzle  
Wind Chill: 47°   Ceiling: 200
Heat Index: 47°   Visibility: 0.5mi
Dew Point: 47°   Wind: 0mph
Humidity: 100%   Direction: NA
Pressure: 30.32"   Gusts: NA
Location:  45.4079°N, 122.613°W
Report Text: KPDX 281409Z 00000KT 1/2SM R10R/P6000FT -DZ BR OVC002 08/08 A3032 RMK AO2 SFC VIS 1 1/2 P0000 T00830083
Loading
Personal Weather Stations






























Interactive Weather Map New forecast layout! Learn more

10-Day Weather Forecast

Advertisements
Track Severe Weather on mobile